createdAt,value
2019-03-21T00:01:44.386Z,1014.01
2019-03-21T00:11:44.387Z,1013.97
2019-03-21T00:21:44.400Z,1013.94
2019-03-21T00:31:44.417Z,1014.03
2019-03-21T00:41:44.429Z,1014.03
2019-03-21T00:51:44.380Z,1013.96
2019-03-21T01:01:44.363Z,1013.94
2019-03-21T01:11:44.365Z,1013.90
2019-03-21T01:21:44.409Z,1013.90
2019-03-21T01:31:44.320Z,1013.89
2019-03-21T01:41:44.400Z,1013.93
2019-03-21T01:51:44.440Z,1013.87
2019-03-21T02:01:44.420Z,1013.78
2019-03-21T02:11:44.374Z,1013.68
2019-03-21T02:21:44.570Z,1013.64
2019-03-21T02:31:44.372Z,1013.64
2019-03-21T02:41:44.660Z,1013.56
2019-03-21T02:51:44.407Z,1013.51
2019-03-21T03:01:44.377Z,1013.54
2019-03-21T03:11:45.453Z,1013.55
2019-03-21T03:21:44.323Z,1013.45
2019-03-21T03:31:44.394Z,1013.48
2019-03-21T03:41:44.313Z,1013.51
2019-03-21T03:51:44.388Z,1013.54
2019-03-21T04:01:44.322Z,1013.65
2019-03-21T04:11:44.400Z,1013.70
2019-03-21T04:21:44.280Z,1013.74
2019-03-21T04:31:44.303Z,1013.66
2019-03-21T04:41:44.348Z,1013.74
2019-03-21T04:51:44.471Z,1013.69
2019-03-21T05:01:44.309Z,1013.82
2019-03-21T05:11:51.805Z,1013.83
2019-03-21T05:21:44.303Z,1013.88
2019-03-21T05:31:44.346Z,1013.90
2019-03-21T05:41:44.233Z,1013.92
2019-03-21T05:51:44.238Z,1014.04
2019-03-21T06:01:44.278Z,1013.97
2019-03-21T06:11:44.287Z,1014.10
2019-03-21T06:21:44.317Z,1014.18
2019-03-21T06:31:44.305Z,1014.15
2019-03-21T06:41:44.429Z,1014.23
2019-03-21T06:51:45.445Z,1014.19
2019-03-21T07:01:44.302Z,1014.20
2019-03-21T07:11:44.321Z,1014.05
2019-03-21T07:21:44.291Z,1014.09
2019-03-21T07:31:44.891Z,1013.98
2019-03-21T07:41:46.437Z,1014.03
2019-03-21T07:51:45.474Z,1014.07
2019-03-21T08:01:44.373Z,1014.07
2019-03-21T08:11:45.946Z,1014.00
2019-03-21T08:21:44.359Z,1014.03
2019-03-21T08:31:44.543Z,1013.92
2019-03-21T08:41:44.452Z,1014.05
2019-03-21T08:51:44.453Z,1014.07
2019-03-21T09:01:44.471Z,1014.03
2019-03-21T09:11:44.947Z,1013.93
2019-03-21T09:21:46.171Z,1014.06
2019-03-21T09:31:45.058Z,1013.93
2019-03-21T09:41:45.784Z,1013.91
2019-03-21T09:51:44.505Z,1013.82
2019-03-21T10:01:44.620Z,1013.80
2019-03-21T10:11:44.341Z,1013.74
2019-03-21T10:21:44.698Z,1013.85
2019-03-21T10:31:45.641Z,1013.79
2019-03-21T10:41:44.378Z,1013.72
2019-03-21T10:51:54.360Z,1013.71
2019-03-21T11:01:45.286Z,1013.71
2019-03-21T11:11:45.208Z,1013.63
2019-03-21T11:21:45.597Z,1013.58
2019-03-21T11:31:44.505Z,1013.52
2019-03-21T11:41:46.294Z,1013.39
2019-03-21T11:51:45.268Z,1013.32
2019-03-21T12:01:44.523Z,1013.38
2019-03-21T12:11:45.287Z,1013.22
2019-03-21T12:21:45.576Z,1013.03
2019-03-21T13:02:32.231Z,1012.81
2019-03-21T13:12:30.474Z,1012.61
2019-03-21T13:22:28.845Z,1012.39
2019-03-21T13:32:28.630Z,1012.37
2019-03-21T13:42:28.415Z,1012.35
2019-03-21T13:52:28.404Z,1012.22
2019-03-21T14:02:28.404Z,1012.08
2019-03-21T14:12:28.885Z,1011.98
2019-03-21T14:22:28.358Z,1011.98
2019-03-21T14:32:28.349Z,1011.80
2019-03-21T14:42:28.486Z,1011.73
2019-03-21T14:52:28.438Z,1011.79
2019-03-21T15:02:28.521Z,1011.79
2019-03-21T15:12:29.714Z,1011.75
2019-03-21T15:22:28.410Z,1011.66
2019-03-21T15:32:28.473Z,1011.69
2019-03-21T15:42:29.257Z,1011.61
2019-03-21T15:52:28.427Z,1011.58
2019-03-21T16:02:28.660Z,1011.50
2019-03-21T16:12:28.423Z,1011.50
2019-03-21T16:22:28.516Z,1011.34
2019-03-21T16:32:30.016Z,1011.42
2019-03-21T16:42:28.480Z,1011.35
2019-03-21T16:52:29.434Z,1011.38
2019-03-21T17:02:28.443Z,1011.40
2019-03-21T17:12:28.420Z,1011.41
2019-03-21T17:22:28.489Z,1011.44
2019-03-21T17:32:28.438Z,1011.48
2019-03-21T17:42:29.296Z,1011.45
2019-03-21T17:52:28.473Z,1011.61
2019-03-21T18:02:28.548Z,1011.48
2019-03-21T18:12:28.487Z,1011.67
2019-03-21T18:22:28.529Z,1011.58
2019-03-21T18:32:28.503Z,1011.65
2019-03-21T18:42:28.455Z,1011.70
2019-03-21T18:52:28.509Z,1011.81
2019-03-21T19:02:28.446Z,1011.78
2019-03-21T19:12:28.459Z,1011.85
2019-03-21T19:22:28.431Z,1011.90
2019-03-21T19:32:28.466Z,1011.97
2019-03-21T19:42:28.463Z,1011.97
2019-03-21T19:52:28.410Z,1011.98
2019-03-21T20:02:28.476Z,1011.93
2019-03-21T20:12:28.403Z,1011.84
2019-03-21T20:22:28.479Z,1011.83
2019-03-21T20:32:28.491Z,1011.84
2019-03-21T20:42:28.391Z,1011.92
2019-03-21T20:52:28.415Z,1011.89
2019-03-21T21:02:28.410Z,1011.83
2019-03-21T21:12:28.517Z,1011.78
2019-03-21T21:22:28.486Z,1011.82
2019-03-21T21:32:31.332Z,1011.71
2019-03-21T21:42:28.456Z,1011.65
2019-03-21T21:52:28.524Z,1011.66
2019-03-21T22:02:28.424Z,1011.60
2019-03-21T22:12:28.477Z,1011.52
2019-03-21T22:22:28.368Z,1011.48
2019-03-21T22:32:28.348Z,1011.58
2019-03-21T22:42:28.398Z,1011.58
2019-03-21T22:52:28.462Z,1011.57
2019-03-21T23:02:28.419Z,1011.37
2019-03-21T23:12:28.332Z,1011.28
2019-03-21T23:22:29.436Z,1011.30
2019-03-21T23:32:28.235Z,1011.18
2019-03-21T23:42:28.448Z,1011.11
2019-03-21T23:52:28.413Z,1011.12
